sensor_id;sensor_type;location;lat;lon;timestamp;temperature;humidity
43043;DHT22;28667;50.758;6.096;2022-12-07T00:01:29;3.70;99.90
43043;DHT22;28667;50.758;6.096;2022-12-07T00:03:59;3.70;99.90
43043;DHT22;28667;50.758;6.096;2022-12-07T00:06:42;3.60;99.90
43043;DHT22;28667;50.758;6.096;2022-12-07T00:09:16;3.70;99.90
43043;DHT22;28667;50.758;6.096;2022-12-07T00:11:42;3.70;99.90
43043;DHT22;28667;50.758;6.096;2022-12-07T00:14:12;3.70;99.90
43043;DHT22;28667;50.758;6.096;2022-12-07T00:16:38;3.70;99.90
43043;DHT22;28667;50.758;6.096;2022-12-07T00:19:04;3.70;99.90
43043;DHT22;28667;50.758;6.096;2022-12-07T00:21:32;3.70;99.90
43043;DHT22;28667;50.758;6.096;2022-12-07T00:23:58;3.70;99.90
43043;DHT22;28667;50.758;6.096;2022-12-07T00:26:30;3.70;99.90
43043;DHT22;28667;50.758;6.096;2022-12-07T00:29:01;3.70;99.90
43043;DHT22;28667;50.758;6.096;2022-12-07T00:31:30;3.70;99.90
43043;DHT22;28667;50.758;6.096;2022-12-07T00:33:57;3.70;99.90
43043;DHT22;28667;50.758;6.096;2022-12-07T00:36:24;3.70;99.90
43043;DHT22;28667;50.758;6.096;2022-12-07T00:38:50;3.70;99.90
43043;DHT22;28667;50.758;6.096;2022-12-07T00:41:18;3.70;99.90
43043;DHT22;28667;50.758;6.096;2022-12-07T00:43:46;3.70;99.90
43043;DHT22;28667;50.758;6.096;2022-12-07T00:46:12;3.80;99.90
43043;DHT22;28667;50.758;6.096;2022-12-07T00:48:38;3.70;99.90
43043;DHT22;28667;50.758;6.096;2022-12-07T00:51:04;3.80;99.90
43043;DHT22;28667;50.758;6.096;2022-12-07T00:53:33;3.70;99.90
43043;DHT22;28667;50.758;6.096;2022-12-07T00:56:08;3.70;99.90
43043;DHT22;28667;50.758;6.096;2022-12-07T00:58:33;3.70;99.90
43043;DHT22;28667;50.758;6.096;2022-12-07T01:01:04;3.70;99.90
43043;DHT22;28667;50.758;6.096;2022-12-07T01:03:30;3.80;99.90
43043;DHT22;28667;50.758;6.096;2022-12-07T01:05:56;3.70;99.90
43043;DHT22;28667;50.758;6.096;2022-12-07T01:08:23;3.70;99.90
43043;DHT22;28667;50.758;6.096;2022-12-07T01:10:57;3.70;99.90
43043;DHT22;28667;50.758;6.096;2022-12-07T01:13:22;3.70;99.90
43043;DHT22;28667;50.758;6.096;2022-12-07T01:15:48;3.70;99.90
43043;DHT22;28667;50.758;6.096;2022-12-07T01:18:14;3.70;99.90
43043;DHT22;28667;50.758;6.096;2022-12-07T01:20:39;3.70;99.90
43043;DHT22;28667;50.758;6.096;2022-12-07T01:23:06;3.70;99.90
43043;DHT22;28667;50.758;6.096;2022-12-07T01:25:32;3.70;99.90
43043;DHT22;28667;50.758;6.096;2022-12-07T01:27:58;3.70;99.90
43043;DHT22;28667;50.758;6.096;2022-12-07T01:30:23;3.70;99.90
43043;DHT22;28667;50.758;6.096;2022-12-07T01:32:49;3.70;99.90
43043;DHT22;28667;50.758;6.096;2022-12-07T01:35:15;3.70;99.90
43043;DHT22;28667;50.758;6.096;2022-12-07T01:37:41;3.70;99.90
43043;DHT22;28667;50.758;6.096;2022-12-07T01:40:08;3.70;99.90
43043;DHT22;28667;50.758;6.096;2022-12-07T01:42:34;3.70;99.90
43043;DHT22;28667;50.758;6.096;2022-12-07T01:45:41;3.70;99.90
43043;DHT22;28667;50.758;6.096;2022-12-07T01:48:08;3.70;99.90
43043;DHT22;28667;50.758;6.096;2022-12-07T01:50:36;3.80;99.90
43043;DHT22;28667;50.758;6.096;2022-12-07T01:53:05;3.80;99.90
43043;DHT22;28667;50.758;6.096;2022-12-07T01:55:31;3.70;99.90
43043;DHT22;28667;50.758;6.096;2022-12-07T01:57:58;3.80;99.90
43043;DHT22;28667;50.758;6.096;2022-12-07T02:00:24;3.70;99.90
43043;DHT22;28667;50.758;6.096;2022-12-07T02:03:03;3.70;99.90
43043;DHT22;28667;50.758;6.096;2022-12-07T02:05:30;3.70;99.90
43043;DHT22;28667;50.758;6.096;2022-12-07T02:07:57;3.70;99.90
43043;DHT22;28667;50.758;6.096;2022-12-07T02:10:29;3.70;99.90
43043;DHT22;28667;50.758;6.096;2022-12-07T02:13:13;3.70;99.90
43043;DHT22;28667;50.758;6.096;2022-12-07T02:19:21;3.80;99.90
43043;DHT22;28667;50.758;6.096;2022-12-07T02:21:45;3.80;99.90
43043;DHT22;28667;50.758;6.096;2022-12-07T02:27:17;3.80;99.90
43043;DHT22;28667;50.758;6.096;2022-12-07T02:29:50;3.80;99.90
43043;DHT22;28667;50.758;6.096;2022-12-07T02:32:48;3.80;99.90
43043;DHT22;28667;50.758;6.096;2022-12-07T02:38:05;3.80;99.90
43043;DHT22;28667;50.758;6.096;2022-12-07T02:43:19;3.80;99.90
43043;DHT22;28667;50.758;6.096;2022-12-07T02:45:50;3.80;99.90
43043;DHT22;28667;50.758;6.096;2022-12-07T02:48:19;3.80;99.90
43043;DHT22;28667;50.758;6.096;2022-12-07T02:50:52;3.80;99.90
43043;DHT22;28667;50.758;6.096;2022-12-07T02:56:00;3.80;99.90
43043;DHT22;28667;50.758;6.096;2022-12-07T02:58:45;3.80;99.90
43043;DHT22;28667;50.758;6.096;2022-12-07T03:04:02;3.80;99.90
43043;DHT22;28667;50.758;6.096;2022-12-07T03:06:38;3.80;99.90
43043;DHT22;28667;50.758;6.096;2022-12-07T03:09:14;3.80;99.90
43043;DHT22;28667;50.758;6.096;2022-12-07T03:11:48;3.80;99.90
43043;DHT22;28667;50.758;6.096;2022-12-07T03:14:24;3.80;99.90
43043;DHT22;28667;50.758;6.096;2022-12-07T03:16:55;3.70;99.90
43043;DHT22;28667;50.758;6.096;2022-12-07T03:19:24;3.80;99.90
43043;DHT22;28667;50.758;6.096;2022-12-07T03:21:56;3.80;99.90
43043;DHT22;28667;50.758;6.096;2022-12-07T03:24:27;3.80;99.90
43043;DHT22;28667;50.758;6.096;2022-12-07T03:27:01;3.80;99.90
43043;DHT22;28667;50.758;6.096;2022-12-07T03:30:16;3.80;99.90
43043;DHT22;28667;50.758;6.096;2022-12-07T03:32:30;3.70;99.90
43043;DHT22;28667;50.758;6.096;2022-12-07T03:35:01;3.80;99.90
43043;DHT22;28667;50.758;6.096;2022-12-07T03:37:36;3.80;99.90
43043;DHT22;28667;50.758;6.096;2022-12-07T03:42:57;3.70;99.90
43043;DHT22;28667;50.758;6.096;2022-12-07T03:46:12;3.80;99.90
43043;DHT22;28667;50.758;6.096;2022-12-07T03:48:22;3.80;99.90
43043;DHT22;28667;50.758;6.096;2022-12-07T03:51:01;3.80;99.90
43043;DHT22;28667;50.758;6.096;2022-12-07T03:53:46;3.80;99.90
43043;DHT22;28667;50.758;6.096;2022-12-07T03:56:12;3.80;99.90
43043;DHT22;28667;50.758;6.096;2022-12-07T03:58:40;3.80;99.90
43043;DHT22;28667;50.758;6.096;2022-12-07T04:01:06;3.80;99.90
43043;DHT22;28667;50.758;6.096;2022-12-07T04:03:32;3.80;99.90
43043;DHT22;28667;50.758;6.096;2022-12-07T04:05:59;3.80;99.90
43043;DHT22;28667;50.758;6.096;2022-12-07T04:08:25;3.80;99.90
43043;DHT22;28667;50.758;6.096;2022-12-07T04:10:50;3.80;99.90
43043;DHT22;28667;50.758;6.096;2022-12-07T04:13:16;3.80;99.90
43043;DHT22;28667;50.758;6.096;2022-12-07T04:15:42;3.80;99.90
43043;DHT22;28667;50.758;6.096;2022-12-07T04:18:07;3.80;99.90
43043;DHT22;28667;50.758;6.096;2022-12-07T04:20:33;3.80;99.90
43043;DHT22;28667;50.758;6.096;2022-12-07T04:22:59;3.80;99.90
43043;DHT22;28667;50.758;6.096;2022-12-07T04:25:25;3.80;99.90
43043;DHT22;28667;50.758;6.096;2022-12-07T04:27:50;3.80;99.90
43043;DHT22;28667;50.758;6.096;2022-12-07T04:30:16;3.70;99.90
43043;DHT22;28667;50.758;6.096;2022-12-07T04:32:42;3.70;99.90
43043;DHT22;28667;50.758;6.096;2022-12-07T04:35:08;3.80;99.90
43043;DHT22;28667;50.758;6.096;2022-12-07T04:37:34;3.80;99.90
43043;DHT22;28667;50.758;6.096;2022-12-07T04:39:59;3.80;99.90
43043;DHT22;28667;50.758;6.096;2022-12-07T04:42:25;3.80;99.90
43043;DHT22;28667;50.758;6.096;2022-12-07T04:44:51;3.80;99.90
43043;DHT22;28667;50.758;6.096;2022-12-07T04:47:16;3.80;99.90
43043;DHT22;28667;50.758;6.096;2022-12-07T04:49:42;3.80;99.90
43043;DHT22;28667;50.758;6.096;2022-12-07T04:52:09;3.80;99.90
43043;DHT22;28667;50.758;6.096;2022-12-07T04:54:34;3.80;99.90
43043;DHT22;28667;50.758;6.096;2022-12-07T04:57:00;3.80;99.90
43043;DHT22;28667;50.758;6.096;2022-12-07T04:59:26;3.80;99.90
43043;DHT22;28667;50.758;6.096;2022-12-07T05:01:51;3.80;99.90
43043;DHT22;28667;50.758;6.096;2022-12-07T05:04:17;3.80;99.90
43043;DHT22;28667;50.758;6.096;2022-12-07T05:06:43;3.80;99.90
43043;DHT22;28667;50.758;6.096;2022-12-07T05:09:09;3.80;99.90
43043;DHT22;28667;50.758;6.096;2022-12-07T05:11:35;3.80;99.90
43043;DHT22;28667;50.758;6.096;2022-12-07T05:14:14;3.80;99.90
43043;DHT22;28667;50.758;6.096;2022-12-07T05:16:42;3.80;99.90
43043;DHT22;28667;50.758;6.096;2022-12-07T05:19:08;3.80;99.90
43043;DHT22;28667;50.758;6.096;2022-12-07T05:21:35;3.80;99.90
43043;DHT22;28667;50.758;6.096;2022-12-07T05:24:02;3.70;99.90
43043;DHT22;28667;50.758;6.096;2022-12-07T05:26:28;3.70;99.90
43043;DHT22;28667;50.758;6.096;2022-12-07T05:28:54;3.70;99.90
43043;DHT22;28667;50.758;6.096;2022-12-07T05:31:21;3.70;99.90
43043;DHT22;28667;50.758;6.096;2022-12-07T05:33:47;3.60;99.90
43043;DHT22;28667;50.758;6.096;2022-12-07T05:36:13;3.60;99.90
43043;DHT22;28667;50.758;6.096;2022-12-07T05:38:39;3.60;99.90
43043;DHT22;28667;50.758;6.096;2022-12-07T05:41:07;3.50;99.90
43043;DHT22;28667;50.758;6.096;2022-12-07T05:43:33;3.50;99.90
43043;DHT22;28667;50.758;6.096;2022-12-07T05:45:59;3.40;99.90
43043;DHT22;28667;50.758;6.096;2022-12-07T05:48:26;3.40;99.90
43043;DHT22;28667;50.758;6.096;2022-12-07T05:50:52;3.40;99.90
43043;DHT22;28667;50.758;6.096;2022-12-07T05:53:18;3.40;99.90
43043;DHT22;28667;50.758;6.096;2022-12-07T05:55:44;3.40;99.90
43043;DHT22;28667;50.758;6.096;2022-12-07T05:58:10;3.40;99.90
43043;DHT22;28667;50.758;6.096;2022-12-07T06:00:55;3.40;99.90
43043;DHT22;28667;50.758;6.096;2022-12-07T06:03:21;3.40;99.90
43043;DHT22;28667;50.758;6.096;2022-12-07T06:05:48;3.40;99.90
43043;DHT22;28667;50.758;6.096;2022-12-07T06:08:14;3.30;99.90
43043;DHT22;28667;50.758;6.096;2022-12-07T06:10:41;3.30;99.90
43043;DHT22;28667;50.758;6.096;2022-12-07T06:13:08;3.30;99.90
43043;DHT22;28667;50.758;6.096;2022-12-07T06:15:37;3.30;99.90
43043;DHT22;28667;50.758;6.096;2022-12-07T06:18:02;3.30;99.90
43043;DHT22;28667;50.758;6.096;2022-12-07T06:20:28;3.30;99.90
43043;DHT22;28667;50.758;6.096;2022-12-07T06:22:54;3.30;99.90
43043;DHT22;28667;50.758;6.096;2022-12-07T06:25:20;3.30;99.90
43043;DHT22;28667;50.758;6.096;2022-12-07T06:27:45;3.30;99.90
43043;DHT22;28667;50.758;6.096;2022-12-07T06:30:11;3.40;99.90
43043;DHT22;28667;50.758;6.096;2022-12-07T06:32:37;3.40;99.90
43043;DHT22;28667;50.758;6.096;2022-12-07T06:35:03;3.40;99.90
43043;DHT22;28667;50.758;6.096;2022-12-07T06:37:29;3.40;99.90
43043;DHT22;28667;50.758;6.096;2022-12-07T06:39:55;3.40;99.90
43043;DHT22;28667;50.758;6.096;2022-12-07T06:42:21;3.40;99.90
43043;DHT22;28667;50.758;6.096;2022-12-07T06:44:47;3.50;99.90
43043;DHT22;28667;50.758;6.096;2022-12-07T06:47:12;3.40;99.90
43043;DHT22;28667;50.758;6.096;2022-12-07T06:49:38;3.50;99.90
43043;DHT22;28667;50.758;6.096;2022-12-07T06:52:04;3.50;99.90
43043;DHT22;28667;50.758;6.096;2022-12-07T06:54:31;3.50;99.90
43043;DHT22;28667;50.758;6.096;2022-12-07T06:56:57;3.50;99.90
43043;DHT22;28667;50.758;6.096;2022-12-07T06:59:22;3.60;99.90
43043;DHT22;28667;50.758;6.096;2022-12-07T07:01:48;3.60;99.90
43043;DHT22;28667;50.758;6.096;2022-12-07T07:04:14;3.60;99.90
43043;DHT22;28667;50.758;6.096;2022-12-07T07:06:40;3.60;99.90
43043;DHT22;28667;50.758;6.096;2022-12-07T07:09:05;3.60;99.90
43043;DHT22;28667;50.758;6.096;2022-12-07T07:11:31;3.60;99.90
43043;DHT22;28667;50.758;6.096;2022-12-07T07:13:57;3.50;99.90
43043;DHT22;28667;50.758;6.096;2022-12-07T07:16:28;3.50;99.90
43043;DHT22;28667;50.758;6.096;2022-12-07T07:18:54;3.50;99.90
43043;DHT22;28667;50.758;6.096;2022-12-07T07:21:20;3.40;99.90
43043;DHT22;28667;50.758;6.096;2022-12-07T07:23:46;3.40;99.90
43043;DHT22;28667;50.758;6.096;2022-12-07T07:26:11;3.40;99.90
43043;DHT22;28667;50.758;6.096;2022-12-07T07:28:37;3.40;99.90
43043;DHT22;28667;50.758;6.096;2022-12-07T07:31:03;3.40;99.90
43043;DHT22;28667;50.758;6.096;2022-12-07T07:33:29;3.40;99.90
43043;DHT22;28667;50.758;6.096;2022-12-07T07:35:54;3.40;99.90
43043;DHT22;28667;50.758;6.096;2022-12-07T07:38:20;3.50;99.90
43043;DHT22;28667;50.758;6.096;2022-12-07T07:40:46;3.50;99.90
43043;DHT22;28667;50.758;6.096;2022-12-07T07:43:11;3.50;99.90
43043;DHT22;28667;50.758;6.096;2022-12-07T07:45:37;3.50;99.90
43043;DHT22;28667;50.758;6.096;2022-12-07T07:48:03;3.50;99.90
43043;DHT22;28667;50.758;6.096;2022-12-07T07:50:29;3.50;99.90
43043;DHT22;28667;50.758;6.096;2022-12-07T07:52:56;3.50;99.90
43043;DHT22;28667;50.758;6.096;2022-12-07T07:55:22;3.50;99.90
43043;DHT22;28667;50.758;6.096;2022-12-07T07:57:48;3.60;99.90
43043;DHT22;28667;50.758;6.096;2022-12-07T08:00:14;3.50;99.90
43043;DHT22;28667;50.758;6.096;2022-12-07T08:02:41;3.50;99.90
43043;DHT22;28667;50.758;6.096;2022-12-07T08:05:09;3.50;99.90
43043;DHT22;28667;50.758;6.096;2022-12-07T08:07:34;3.50;99.90
43043;DHT22;28667;50.758;6.096;2022-12-07T08:10:00;3.50;99.90
43043;DHT22;28667;50.758;6.096;2022-12-07T08:12:26;3.50;99.90
43043;DHT22;28667;50.758;6.096;2022-12-07T08:14:51;3.50;99.90
43043;DHT22;28667;50.758;6.096;2022-12-07T08:17:17;3.50;99.90
43043;DHT22;28667;50.758;6.096;2022-12-07T08:19:44;3.50;99.90
43043;DHT22;28667;50.758;6.096;2022-12-07T08:22:09;3.50;99.90
43043;DHT22;28667;50.758;6.096;2022-12-07T08:24:36;3.50;99.90
43043;DHT22;28667;50.758;6.096;2022-12-07T08:27:02;3.50;99.90
43043;DHT22;28667;50.758;6.096;2022-12-07T08:29:28;3.50;99.90
43043;DHT22;28667;50.758;6.096;2022-12-07T08:31:54;3.50;99.90
43043;DHT22;28667;50.758;6.096;2022-12-07T08:34:19;3.50;99.90
43043;DHT22;28667;50.758;6.096;2022-12-07T08:36:45;3.50;99.90
43043;DHT22;28667;50.758;6.096;2022-12-07T08:39:11;3.60;99.90
43043;DHT22;28667;50.758;6.096;2022-12-07T08:41:37;3.60;99.90
43043;DHT22;28667;50.758;6.096;2022-12-07T08:44:03;3.60;99.90
43043;DHT22;28667;50.758;6.096;2022-12-07T08:46:38;3.60;99.90
43043;DHT22;28667;50.758;6.096;2022-12-07T08:49:09;3.50;99.90
43043;DHT22;28667;50.758;6.096;2022-12-07T08:51:36;3.50;99.90
43043;DHT22;28667;50.758;6.096;2022-12-07T08:54:06;3.40;99.90
43043;DHT22;28667;50.758;6.096;2022-12-07T08:56:32;3.40;99.90
43043;DHT22;28667;50.758;6.096;2022-12-07T08:58:58;3.30;99.90
43043;DHT22;28667;50.758;6.096;2022-12-07T09:01:24;3.30;99.90
43043;DHT22;28667;50.758;6.096;2022-12-07T09:03:50;3.20;99.90
43043;DHT22;28667;50.758;6.096;2022-12-07T09:06:16;3.20;99.90
43043;DHT22;28667;50.758;6.096;2022-12-07T09:08:45;3.20;99.90
43043;DHT22;28667;50.758;6.096;2022-12-07T09:11:11;3.20;99.90
43043;DHT22;28667;50.758;6.096;2022-12-07T09:13:37;3.10;99.90
43043;DHT22;28667;50.758;6.096;2022-12-07T09:16:03;3.10;99.90
43043;DHT22;28667;50.758;6.096;2022-12-07T09:18:29;3.10;99.90
43043;DHT22;28667;50.758;6.096;2022-12-07T09:20:56;3.10;99.90
43043;DHT22;28667;50.758;6.096;2022-12-07T09:23:21;3.10;99.90
43043;DHT22;28667;50.758;6.096;2022-12-07T09:25:47;3.20;99.90
43043;DHT22;28667;50.758;6.096;2022-12-07T09:28:13;3.30;99.90
43043;DHT22;28667;50.758;6.096;2022-12-07T09:30:39;3.30;99.90
43043;DHT22;28667;50.758;6.096;2022-12-07T09:33:10;3.40;99.90
43043;DHT22;28667;50.758;6.096;2022-12-07T09:35:35;3.50;99.90
43043;DHT22;28667;50.758;6.096;2022-12-07T09:38:01;3.60;99.90
43043;DHT22;28667;50.758;6.096;2022-12-07T09:40:28;3.80;99.90
43043;DHT22;28667;50.758;6.096;2022-12-07T09:42:55;3.90;99.90
43043;DHT22;28667;50.758;6.096;2022-12-07T09:45:30;4.00;99.90
43043;DHT22;28667;50.758;6.096;2022-12-07T09:47:58;4.10;99.90
43043;DHT22;28667;50.758;6.096;2022-12-07T09:50:26;4.20;99.90
43043;DHT22;28667;50.758;6.096;2022-12-07T09:52:55;4.20;99.90
43043;DHT22;28667;50.758;6.096;2022-12-07T09:55:28;4.20;99.90
43043;DHT22;28667;50.758;6.096;2022-12-07T09:57:54;4.30;99.90
43043;DHT22;28667;50.758;6.096;2022-12-07T10:00:22;4.30;99.90
43043;DHT22;28667;50.758;6.096;2022-12-07T10:03:02;4.30;99.90
43043;DHT22;28667;50.758;6.096;2022-12-07T10:05:31;4.40;99.90
43043;DHT22;28667;50.758;6.096;2022-12-07T10:07:59;4.40;99.90
43043;DHT22;28667;50.758;6.096;2022-12-07T10:10:29;4.50;99.90
43043;DHT22;28667;50.758;6.096;2022-12-07T10:12:56;4.40;99.90
43043;DHT22;28667;50.758;6.096;2022-12-07T10:15:23;4.50;99.90
43043;DHT22;28667;50.758;6.096;2022-12-07T10:18:17;4.40;99.90
43043;DHT22;28667;50.758;6.096;2022-12-07T10:20:46;4.40;99.90
43043;DHT22;28667;50.758;6.096;2022-12-07T10:23:17;4.30;99.90
43043;DHT22;28667;50.758;6.096;2022-12-07T10:25:44;4.30;99.90
43043;DHT22;28667;50.758;6.096;2022-12-07T10:28:12;4.30;99.90
43043;DHT22;28667;50.758;6.096;2022-12-07T10:31:00;4.30;99.90
43043;DHT22;28667;50.758;6.096;2022-12-07T10:33:35;4.40;99.90
43043;DHT22;28667;50.758;6.096;2022-12-07T10:36:17;4.50;99.90
43043;DHT22;28667;50.758;6.096;2022-12-07T10:38:49;4.60;99.90
43043;DHT22;28667;50.758;6.096;2022-12-07T10:41:15;4.60;99.90
43043;DHT22;28667;50.758;6.096;2022-12-07T10:43:53;4.70;99.90
43043;DHT22;28667;50.758;6.096;2022-12-07T10:46:49;4.90;99.90
43043;DHT22;28667;50.758;6.096;2022-12-07T10:55:04;5.10;99.90
43043;DHT22;28667;50.758;6.096;2022-12-07T11:00:31;5.00;99.90
43043;DHT22;28667;50.758;6.096;2022-12-07T11:03:38;4.80;99.90
43043;DHT22;28667;50.758;6.096;2022-12-07T11:11:23;4.50;99.90
43043;DHT22;28667;50.758;6.096;2022-12-07T11:13:57;4.40;99.90
43043;DHT22;28667;50.758;6.096;2022-12-07T11:19:22;4.40;99.90
43043;DHT22;28667;50.758;6.096;2022-12-07T11:22:09;4.30;99.90
43043;DHT22;28667;50.758;6.096;2022-12-07T11:30:47;4.40;99.90
43043;DHT22;28667;50.758;6.096;2022-12-07T11:38:53;4.50;99.90
43043;DHT22;28667;50.758;6.096;2022-12-07T11:41:27;4.60;99.90
43043;DHT22;28667;50.758;6.096;2022-12-07T11:46:35;4.60;99.90
43043;DHT22;28667;50.758;6.096;2022-12-07T11:49:10;4.60;99.90
43043;DHT22;28667;50.758;6.096;2022-12-07T11:51:41;4.60;99.90
43043;DHT22;28667;50.758;6.096;2022-12-07T11:54:38;4.60;99.90
43043;DHT22;28667;50.758;6.096;2022-12-07T11:57:14;4.60;99.90
43043;DHT22;28667;50.758;6.096;2022-12-07T11:59:50;4.60;99.90
43043;DHT22;28667;50.758;6.096;2022-12-07T12:02:23;4.50;99.90
43043;DHT22;28667;50.758;6.096;2022-12-07T12:04:51;4.50;99.90
43043;DHT22;28667;50.758;6.096;2022-12-07T12:07:22;4.40;99.90
43043;DHT22;28667;50.758;6.096;2022-12-07T12:10:33;4.40;99.90
43043;DHT22;28667;50.758;6.096;2022-12-07T12:21:17;4.40;99.90
43043;DHT22;28667;50.758;6.096;2022-12-07T12:23:45;4.40;99.90
43043;DHT22;28667;50.758;6.096;2022-12-07T12:26:18;4.40;99.90
43043;DHT22;28667;50.758;6.096;2022-12-07T12:28:56;4.40;99.90
43043;DHT22;28667;50.758;6.096;2022-12-07T12:33:55;4.40;99.90
43043;DHT22;28667;50.758;6.096;2022-12-07T12:56:55;4.50;99.90
43043;DHT22;28667;50.758;6.096;2022-12-07T12:59:33;4.60;99.90
43043;DHT22;28667;50.758;6.096;2022-12-07T13:13:05;4.80;99.90
43043;DHT22;28667;50.758;6.096;2022-12-07T13:15:54;4.90;99.90
43043;DHT22;28667;50.758;6.096;2022-12-07T13:23:35;4.90;99.90
43043;DHT22;28667;50.758;6.096;2022-12-07T13:28:49;4.90;99.90
43043;DHT22;28667;50.758;6.096;2022-12-07T13:33:50;4.90;99.90
43043;DHT22;28667;50.758;6.096;2022-12-07T13:36:22;5.00;99.90
43043;DHT22;28667;50.758;6.096;2022-12-07T13:38:59;4.90;99.90
43043;DHT22;28667;50.758;6.096;2022-12-07T13:41:29;4.90;99.90
43043;DHT22;28667;50.758;6.096;2022-12-07T13:44:07;4.90;99.90
43043;DHT22;28667;50.758;6.096;2022-12-07T13:49:27;4.90;99.90
43043;DHT22;28667;50.758;6.096;2022-12-07T13:51:54;4.90;99.90
43043;DHT22;28667;50.758;6.096;2022-12-07T13:54:21;4.90;99.90
43043;DHT22;28667;50.758;6.096;2022-12-07T13:56:52;4.90;99.90
43043;DHT22;28667;50.758;6.096;2022-12-07T13:59:23;4.90;99.90
43043;DHT22;28667;50.758;6.096;2022-12-07T14:01:51;4.90;99.90
43043;DHT22;28667;50.758;6.096;2022-12-07T14:04:19;4.90;99.90
43043;DHT22;28667;50.758;6.096;2022-12-07T14:06:51;4.90;99.90
43043;DHT22;28667;50.758;6.096;2022-12-07T14:09:20;4.90;99.90
43043;DHT22;28667;50.758;6.096;2022-12-07T14:11:49;4.90;99.90
43043;DHT22;28667;50.758;6.096;2022-12-07T14:14:30;4.90;99.90
43043;DHT22;28667;50.758;6.096;2022-12-07T14:17:18;4.80;99.90
43043;DHT22;28667;50.758;6.096;2022-12-07T14:24:57;4.80;99.90
43043;DHT22;28667;50.758;6.096;2022-12-07T14:27:24;4.80;99.90
43043;DHT22;28667;50.758;6.096;2022-12-07T14:29:56;4.70;99.90
43043;DHT22;28667;50.758;6.096;2022-12-07T14:32:24;4.70;99.90
43043;DHT22;28667;50.758;6.096;2022-12-07T14:35:07;4.70;99.90
43043;DHT22;28667;50.758;6.096;2022-12-07T14:37:36;4.70;99.90
43043;DHT22;28667;50.758;6.096;2022-12-07T14:40:03;4.70;99.90
43043;DHT22;28667;50.758;6.096;2022-12-07T14:42:30;4.70;99.90
43043;DHT22;28667;50.758;6.096;2022-12-07T14:44:57;4.70;99.90
43043;DHT22;28667;50.758;6.096;2022-12-07T14:47:24;4.70;99.90
43043;DHT22;28667;50.758;6.096;2022-12-07T14:49:50;4.70;99.90
43043;DHT22;28667;50.758;6.096;2022-12-07T14:52:21;4.70;99.90
43043;DHT22;28667;50.758;6.096;2022-12-07T14:54:48;4.60;99.90
43043;DHT22;28667;50.758;6.096;2022-12-07T14:57:14;4.60;99.90
43043;DHT22;28667;50.758;6.096;2022-12-07T14:59:40;4.60;99.90
43043;DHT22;28667;50.758;6.096;2022-12-07T15:02:06;4.60;99.90
43043;DHT22;28667;50.758;6.096;2022-12-07T15:04:34;4.60;99.90
43043;DHT22;28667;50.758;6.096;2022-12-07T15:07:03;4.60;99.90
43043;DHT22;28667;50.758;6.096;2022-12-07T15:09:29;4.50;99.90
43043;DHT22;28667;50.758;6.096;2022-12-07T15:11:55;4.50;99.90
43043;DHT22;28667;50.758;6.096;2022-12-07T15:14:21;4.40;99.90
43043;DHT22;28667;50.758;6.096;2022-12-07T15:16:46;4.40;99.90
43043;DHT22;28667;50.758;6.096;2022-12-07T15:19:18;4.40;99.90
43043;DHT22;28667;50.758;6.096;2022-12-07T15:21:44;4.40;99.90
43043;DHT22;28667;50.758;6.096;2022-12-07T15:24:11;4.40;99.90
43043;DHT22;28667;50.758;6.096;2022-12-07T15:26:38;4.30;99.90
43043;DHT22;28667;50.758;6.096;2022-12-07T15:29:04;4.40;99.90
43043;DHT22;28667;50.758;6.096;2022-12-07T15:31:30;4.40;99.90
43043;DHT22;28667;50.758;6.096;2022-12-07T15:33:56;4.30;99.90
43043;DHT22;28667;50.758;6.096;2022-12-07T15:36:24;4.30;99.90
43043;DHT22;28667;50.758;6.096;2022-12-07T15:38:50;4.30;99.90
43043;DHT22;28667;50.758;6.096;2022-12-07T15:41:16;4.20;99.90
43043;DHT22;28667;50.758;6.096;2022-12-07T15:43:42;4.10;99.90
43043;DHT22;28667;50.758;6.096;2022-12-07T15:46:31;4.10;99.90
43043;DHT22;28667;50.758;6.096;2022-12-07T15:48:57;4.00;99.90
43043;DHT22;28667;50.758;6.096;2022-12-07T15:51:23;3.90;99.90
43043;DHT22;28667;50.758;6.096;2022-12-07T15:53:49;3.80;99.90
43043;DHT22;28667;50.758;6.096;2022-12-07T15:56:14;3.70;99.90
43043;DHT22;28667;50.758;6.096;2022-12-07T15:58:40;3.70;99.90
43043;DHT22;28667;50.758;6.096;2022-12-07T16:01:19;3.70;99.90
43043;DHT22;28667;50.758;6.096;2022-12-07T16:03:45;3.60;99.90
43043;DHT22;28667;50.758;6.096;2022-12-07T16:06:12;3.60;99.90
43043;DHT22;28667;50.758;6.096;2022-12-07T16:08:45;3.60;99.90
43043;DHT22;28667;50.758;6.096;2022-12-07T16:11:11;3.60;99.90
43043;DHT22;28667;50.758;6.096;2022-12-07T16:13:36;3.70;99.90
43043;DHT22;28667;50.758;6.096;2022-12-07T16:16:04;3.70;99.90
43043;DHT22;28667;50.758;6.096;2022-12-07T16:18:30;3.70;99.90
43043;DHT22;28667;50.758;6.096;2022-12-07T16:20:56;3.70;99.90
43043;DHT22;28667;50.758;6.096;2022-12-07T16:23:22;3.70;99.90
43043;DHT22;28667;50.758;6.096;2022-12-07T16:25:48;3.70;99.90
43043;DHT22;28667;50.758;6.096;2022-12-07T16:28:13;3.70;99.90
43043;DHT22;28667;50.758;6.096;2022-12-07T16:30:39;3.70;99.90
43043;DHT22;28667;50.758;6.096;2022-12-07T16:33:05;3.70;99.90
43043;DHT22;28667;50.758;6.096;2022-12-07T16:35:31;3.70;99.90
43043;DHT22;28667;50.758;6.096;2022-12-07T16:37:56;3.70;99.90
43043;DHT22;28667;50.758;6.096;2022-12-07T16:40:22;3.70;99.90
43043;DHT22;28667;50.758;6.096;2022-12-07T16:42:48;3.70;99.90
43043;DHT22;28667;50.758;6.096;2022-12-07T16:45:14;3.80;99.90
43043;DHT22;28667;50.758;6.096;2022-12-07T16:47:40;3.80;99.90
43043;DHT22;28667;50.758;6.096;2022-12-07T16:50:06;3.80;99.90
43043;DHT22;28667;50.758;6.096;2022-12-07T16:52:33;3.80;99.90
43043;DHT22;28667;50.758;6.096;2022-12-07T16:54:59;3.80;99.90
43043;DHT22;28667;50.758;6.096;2022-12-07T16:57:25;3.80;99.90
43043;DHT22;28667;50.758;6.096;2022-12-07T16:59:52;3.80;99.90
43043;DHT22;28667;50.758;6.096;2022-12-07T17:02:17;3.80;99.90
43043;DHT22;28667;50.758;6.096;2022-12-07T17:04:43;3.80;99.90
43043;DHT22;28667;50.758;6.096;2022-12-07T17:07:09;3.70;99.90
43043;DHT22;28667;50.758;6.096;2022-12-07T17:09:36;3.70;99.90
43043;DHT22;28667;50.758;6.096;2022-12-07T17:12:02;3.70;99.90
43043;DHT22;28667;50.758;6.096;2022-12-07T17:14:28;3.70;99.90
43043;DHT22;28667;50.758;6.096;2022-12-07T17:17:12;3.70;99.90
43043;DHT22;28667;50.758;6.096;2022-12-07T17:19:37;3.70;99.90
43043;DHT22;28667;50.758;6.096;2022-12-07T17:22:03;3.70;99.90
43043;DHT22;28667;50.758;6.096;2022-12-07T17:24:29;3.70;99.90
43043;DHT22;28667;50.758;6.096;2022-12-07T17:26:55;3.70;99.90
43043;DHT22;28667;50.758;6.096;2022-12-07T17:29:21;3.70;99.90
43043;DHT22;28667;50.758;6.096;2022-12-07T17:31:47;3.70;99.90
43043;DHT22;28667;50.758;6.096;2022-12-07T17:34:14;3.70;99.90
43043;DHT22;28667;50.758;6.096;2022-12-07T17:36:40;3.80;99.90
43043;DHT22;28667;50.758;6.096;2022-12-07T17:39:11;3.70;99.90
43043;DHT22;28667;50.758;6.096;2022-12-07T17:41:38;3.70;99.90
43043;DHT22;28667;50.758;6.096;2022-12-07T17:44:23;3.80;99.90
43043;DHT22;28667;50.758;6.096;2022-12-07T17:46:51;3.70;99.90
43043;DHT22;28667;50.758;6.096;2022-12-07T17:49:22;3.70;99.90